sensor_id;sensor_type;location;lat;lon;timestamp;P1;durP1;ratioP1;P2;durP2;ratioP2
23171;SDS011;11754;42.664;23.594;2022-09-09T00:02:18;9.15;;;6.43;;
23171;SDS011;11754;42.664;23.594;2022-09-09T00:10:28;9.90;;;6.38;;
23171;SDS011;11754;42.664;23.594;2022-09-09T00:13:15;7.82;;;6.45;;
23171;SDS011;11754;42.664;23.594;2022-09-09T00:18:57;10.35;;;6.15;;
23171;SDS011;11754;42.664;23.594;2022-09-09T00:24:00;13.30;;;6.82;;
23171;SDS011;11754;42.664;23.594;2022-09-09T00:26:45;9.43;;;6.82;;
23171;SDS011;11754;42.664;23.594;2022-09-09T00:31:53;17.42;;;13.25;;
23171;SDS011;11754;42.664;23.594;2022-09-09T00:36:52;9.18;;;7.95;;
23171;SDS011;11754;42.664;23.594;2022-09-09T00:39:39;11.05;;;7.45;;
23171;SDS011;11754;42.664;23.594;2022-09-09T00:42:18;8.07;;;7.22;;
23171;SDS011;11754;42.664;23.594;2022-09-09T00:44:53;8.38;;;6.90;;
23171;SDS011;11754;42.664;23.594;2022-09-09T00:58:10;9.10;;;6.35;;
23171;SDS011;11754;42.664;23.594;2022-09-09T01:05:37;7.70;;;6.35;;
23171;SDS011;11754;42.664;23.594;2022-09-09T01:08:20;9.10;;;6.47;;
23171;SDS011;11754;42.664;23.594;2022-09-09T01:11:01;11.77;;;6.95;;
23171;SDS011;11754;42.664;23.594;2022-09-09T01:13:34;12.32;;;6.60;;
23171;SDS011;11754;42.664;23.594;2022-09-09T01:16:04;11.73;;;7.28;;
23171;SDS011;11754;42.664;23.594;2022-09-09T01:28:34;8.77;;;6.97;;
23171;SDS011;11754;42.664;23.594;2022-09-09T01:31:02;9.63;;;6.97;;
23171;SDS011;11754;42.664;23.594;2022-09-09T01:33:29;10.88;;;6.90;;
23171;SDS011;11754;42.664;23.594;2022-09-09T01:38:32;9.52;;;7.03;;
23171;SDS011;11754;42.664;23.594;2022-09-09T01:40:59;8.65;;;7.07;;
23171;SDS011;11754;42.664;23.594;2022-09-09T01:43:25;7.85;;;7.05;;
23171;SDS011;11754;42.664;23.594;2022-09-09T01:45:53;9.50;;;6.80;;
23171;SDS011;11754;42.664;23.594;2022-09-09T01:48:22;10.15;;;6.82;;
23171;SDS011;11754;42.664;23.594;2022-09-09T01:50:49;6.93;;;6.22;;
23171;SDS011;11754;42.664;23.594;2022-09-09T01:53:14;7.72;;;6.65;;
23171;SDS011;11754;42.664;23.594;2022-09-09T01:55:43;11.32;;;6.60;;
23171;SDS011;11754;42.664;23.594;2022-09-09T02:01:11;7.65;;;6.50;;
23171;SDS011;11754;42.664;23.594;2022-09-09T02:03:39;9.63;;;7.10;;
23171;SDS011;11754;42.664;23.594;2022-09-09T02:06:20;9.90;;;6.75;;
23171;SDS011;11754;42.664;23.594;2022-09-09T02:09:02;7.80;;;7.00;;
23171;SDS011;11754;42.664;23.594;2022-09-09T02:11:30;7.60;;;6.80;;
23171;SDS011;11754;42.664;23.594;2022-09-09T02:14:06;8.40;;;7.15;;
23171;SDS011;11754;42.664;23.594;2022-09-09T02:16:40;8.93;;;6.88;;
23171;SDS011;11754;42.664;23.594;2022-09-09T02:21:56;8.75;;;7.20;;
23171;SDS011;11754;42.664;23.594;2022-09-09T02:24:24;8.30;;;6.95;;
23171;SDS011;11754;42.664;23.594;2022-09-09T02:26:52;9.38;;;6.90;;
23171;SDS011;11754;42.664;23.594;2022-09-09T02:29:28;9.73;;;7.53;;
23171;SDS011;11754;42.664;23.594;2022-09-09T02:31:57;7.70;;;6.85;;
23171;SDS011;11754;42.664;23.594;2022-09-09T02:34:28;8.32;;;7.40;;
23171;SDS011;11754;42.664;23.594;2022-09-09T02:36:56;10.75;;;7.40;;
23171;SDS011;11754;42.664;23.594;2022-09-09T02:39:24;8.95;;;6.70;;
23171;SDS011;11754;42.664;23.594;2022-09-09T02:41:50;7.55;;;6.72;;
23171;SDS011;11754;42.664;23.594;2022-09-09T02:44:17;9.45;;;7.50;;
23171;SDS011;11754;42.664;23.594;2022-09-09T02:51:52;13.32;;;6.90;;
23171;SDS011;11754;42.664;23.594;2022-09-09T02:54:29;8.68;;;7.07;;
23171;SDS011;11754;42.664;23.594;2022-09-09T02:56:59;9.60;;;7.10;;
23171;SDS011;11754;42.664;23.594;2022-09-09T02:59:27;10.63;;;6.80;;
23171;SDS011;11754;42.664;23.594;2022-09-09T03:01:52;9.98;;;6.93;;
23171;SDS011;11754;42.664;23.594;2022-09-09T03:04:18;8.77;;;7.43;;
23171;SDS011;11754;42.664;23.594;2022-09-09T03:06:43;13.32;;;7.38;;
23171;SDS011;11754;42.664;23.594;2022-09-09T03:09:09;11.38;;;8.30;;
23171;SDS011;11754;42.664;23.594;2022-09-09T03:11:35;11.95;;;8.75;;
23171;SDS011;11754;42.664;23.594;2022-09-09T03:14:01;12.23;;;9.07;;
23171;SDS011;11754;42.664;23.594;2022-09-09T03:16:27;12.20;;;8.38;;
23171;SDS011;11754;42.664;23.594;2022-09-09T03:18:52;8.45;;;7.65;;
23171;SDS011;11754;42.664;23.594;2022-09-09T03:21:18;9.68;;;8.15;;
23171;SDS011;11754;42.664;23.594;2022-09-09T03:23:43;9.85;;;7.70;;
23171;SDS011;11754;42.664;23.594;2022-09-09T03:26:10;9.02;;;7.93;;
23171;SDS011;11754;42.664;23.594;2022-09-09T03:28:35;11.18;;;7.90;;
23171;SDS011;11754;42.664;23.594;2022-09-09T03:31:02;8.55;;;7.45;;
23171;SDS011;11754;42.664;23.594;2022-09-09T03:33:29;10.95;;;7.50;;
23171;SDS011;11754;42.664;23.594;2022-09-09T03:35:56;10.20;;;7.72;;
23171;SDS011;11754;42.664;23.594;2022-09-09T03:38:23;9.95;;;7.45;;
23171;SDS011;11754;42.664;23.594;2022-09-09T03:40:49;14.95;;;7.32;;
23171;SDS011;11754;42.664;23.594;2022-09-09T03:43:22;12.73;;;6.97;;
23171;SDS011;11754;42.664;23.594;2022-09-09T03:45:49;7.60;;;6.60;;
23171;SDS011;11754;42.664;23.594;2022-09-09T03:48:15;10.85;;;7.00;;
23171;SDS011;11754;42.664;23.594;2022-09-09T03:50:48;8.13;;;6.78;;
23171;SDS011;11754;42.664;23.594;2022-09-09T03:53:15;9.77;;;6.80;;
23171;SDS011;11754;42.664;23.594;2022-09-09T03:55:49;7.43;;;6.28;;
23171;SDS011;11754;42.664;23.594;2022-09-09T03:58:19;8.50;;;6.82;;
23171;SDS011;11754;42.664;23.594;2022-09-09T04:01:00;11.63;;;7.13;;
23171;SDS011;11754;42.664;23.594;2022-09-09T04:03:30;7.68;;;6.65;;
23171;SDS011;11754;42.664;23.594;2022-09-09T04:05:56;7.63;;;6.45;;
23171;SDS011;11754;42.664;23.594;2022-09-09T04:08:24;8.23;;;6.95;;
23171;SDS011;11754;42.664;23.594;2022-09-09T04:10:50;9.60;;;6.63;;
23171;SDS011;11754;42.664;23.594;2022-09-09T04:13:16;9.77;;;6.43;;
23171;SDS011;11754;42.664;23.594;2022-09-09T04:15:43;11.30;;;7.15;;
23171;SDS011;11754;42.664;23.594;2022-09-09T04:18:15;11.52;;;7.57;;
23171;SDS011;11754;42.664;23.594;2022-09-09T04:20:40;7.38;;;6.43;;
23171;SDS011;11754;42.664;23.594;2022-09-09T04:23:05;9.60;;;6.63;;
23171;SDS011;11754;42.664;23.594;2022-09-09T04:25:31;11.63;;;7.25;;
23171;SDS011;11754;42.664;23.594;2022-09-09T04:27:57;10.27;;;7.65;;
23171;SDS011;11754;42.664;23.594;2022-09-09T04:30:23;17.15;;;10.25;;
23171;SDS011;11754;42.664;23.594;2022-09-09T04:32:50;13.23;;;9.52;;
23171;SDS011;11754;42.664;23.594;2022-09-09T04:35:15;11.23;;;8.15;;
23171;SDS011;11754;42.664;23.594;2022-09-09T04:37:41;12.15;;;8.10;;
23171;SDS011;11754;42.664;23.594;2022-09-09T04:40:06;15.75;;;8.45;;
23171;SDS011;11754;42.664;23.594;2022-09-09T04:42:38;20.95;;;10.88;;
23171;SDS011;11754;42.664;23.594;2022-09-09T04:45:04;22.42;;;10.38;;
23171;SDS011;11754;42.664;23.594;2022-09-09T04:47:31;19.33;;;11.77;;
23171;SDS011;11754;42.664;23.594;2022-09-09T04:49:57;16.42;;;9.13;;
23171;SDS011;11754;42.664;23.594;2022-09-09T04:52:23;21.92;;;9.57;;
23171;SDS011;11754;42.664;23.594;2022-09-09T04:54:48;14.68;;;8.43;;
23171;SDS011;11754;42.664;23.594;2022-09-09T04:57:14;16.40;;;7.63;;
23171;SDS011;11754;42.664;23.594;2022-09-09T04:59:39;9.20;;;6.47;;
23171;SDS011;11754;42.664;23.594;2022-09-09T05:02:05;7.55;;;5.45;;
23171;SDS011;11754;42.664;23.594;2022-09-09T05:04:30;8.82;;;5.75;;
23171;SDS011;11754;42.664;23.594;2022-09-09T05:06:56;15.90;;;7.97;;
23171;SDS011;11754;42.664;23.594;2022-09-09T05:09:21;21.85;;;10.15;;
23171;SDS011;11754;42.664;23.594;2022-09-09T05:11:47;20.13;;;8.63;;
23171;SDS011;11754;42.664;23.594;2022-09-09T05:14:14;22.75;;;8.00;;
23171;SDS011;11754;42.664;23.594;2022-09-09T05:16:40;20.95;;;9.30;;
23171;SDS011;11754;42.664;23.594;2022-09-09T05:19:06;14.98;;;7.35;;
23171;SDS011;11754;42.664;23.594;2022-09-09T05:21:33;14.95;;;6.55;;
23171;SDS011;11754;42.664;23.594;2022-09-09T05:23:59;12.48;;;6.90;;
23171;SDS011;11754;42.664;23.594;2022-09-09T05:26:25;12.82;;;5.70;;
23171;SDS011;11754;42.664;23.594;2022-09-09T05:28:51;14.25;;;6.32;;
23171;SDS011;11754;42.664;23.594;2022-09-09T05:31:16;10.75;;;5.95;;
23171;SDS011;11754;42.664;23.594;2022-09-09T05:33:44;9.98;;;5.88;;
23171;SDS011;11754;42.664;23.594;2022-09-09T05:36:14;7.68;;;4.82;;
23171;SDS011;11754;42.664;23.594;2022-09-09T05:38:41;14.48;;;5.75;;
23171;SDS011;11754;42.664;23.594;2022-09-09T05:41:08;6.20;;;5.35;;
23171;SDS011;11754;42.664;23.594;2022-09-09T05:43:36;12.35;;;5.35;;
23171;SDS011;11754;42.664;23.594;2022-09-09T05:46:09;10.35;;;5.45;;
23171;SDS011;11754;42.664;23.594;2022-09-09T05:48:36;11.38;;;5.88;;
23171;SDS011;11754;42.664;23.594;2022-09-09T05:51:07;9.23;;;6.15;;
23171;SDS011;11754;42.664;23.594;2022-09-09T05:53:36;10.05;;;6.32;;
23171;SDS011;11754;42.664;23.594;2022-09-09T05:56:05;9.55;;;5.53;;
23171;SDS011;11754;42.664;23.594;2022-09-09T05:58:32;14.73;;;5.00;;
23171;SDS011;11754;42.664;23.594;2022-09-09T06:03:28;15.60;;;5.80;;
23171;SDS011;11754;42.664;23.594;2022-09-09T06:05:57;12.13;;;5.00;;
23171;SDS011;11754;42.664;23.594;2022-09-09T06:08:27;7.75;;;4.20;;
23171;SDS011;11754;42.664;23.594;2022-09-09T06:10:52;8.35;;;4.03;;
23171;SDS011;11754;42.664;23.594;2022-09-09T06:13:18;9.63;;;4.05;;
23171;SDS011;11754;42.664;23.594;2022-09-09T06:15:52;9.75;;;3.83;;
23171;SDS011;11754;42.664;23.594;2022-09-09T06:18:18;9.32;;;3.92;;
23171;SDS011;11754;42.664;23.594;2022-09-09T06:21:00;8.88;;;3.63;;
23171;SDS011;11754;42.664;23.594;2022-09-09T06:23:29;5.28;;;3.40;;
23171;SDS011;11754;42.664;23.594;2022-09-09T06:26:06;6.78;;;3.65;;
23171;SDS011;11754;42.664;23.594;2022-09-09T06:28:39;6.80;;;3.55;;
23171;SDS011;11754;42.664;23.594;2022-09-09T06:31:05;8.98;;;4.57;;
23171;SDS011;11754;42.664;23.594;2022-09-09T06:33:36;14.80;;;5.45;;
23171;SDS011;11754;42.664;23.594;2022-09-09T06:36:07;14.60;;;5.60;;
23171;SDS011;11754;42.664;23.594;2022-09-09T06:38:36;10.52;;;6.10;;
23171;SDS011;11754;42.664;23.594;2022-09-09T06:41:02;7.15;;;3.08;;
23171;SDS011;11754;42.664;23.594;2022-09-09T06:43:28;8.43;;;4.50;;
23171;SDS011;11754;42.664;23.594;2022-09-09T06:48:23;9.50;;;5.30;;
23171;SDS011;11754;42.664;23.594;2022-09-09T06:50:51;6.82;;;3.92;;
23171;SDS011;11754;42.664;23.594;2022-09-09T06:53:24;9.60;;;4.00;;
23171;SDS011;11754;42.664;23.594;2022-09-09T06:55:51;13.10;;;3.47;;
23171;SDS011;11754;42.664;23.594;2022-09-09T06:58:16;6.10;;;2.88;;
23171;SDS011;11754;42.664;23.594;2022-09-09T07:00:42;6.22;;;3.10;;
23171;SDS011;11754;42.664;23.594;2022-09-09T07:03:07;6.22;;;2.95;;
23171;SDS011;11754;42.664;23.594;2022-09-09T07:05:32;5.18;;;3.05;;
23171;SDS011;11754;42.664;23.594;2022-09-09T07:07:58;8.93;;;3.20;;
23171;SDS011;11754;42.664;23.594;2022-09-09T07:10:23;5.50;;;3.10;;
23171;SDS011;11754;42.664;23.594;2022-09-09T07:12:52;5.13;;;3.05;;
23171;SDS011;11754;42.664;23.594;2022-09-09T07:15:18;5.72;;;2.83;;
23171;SDS011;11754;42.664;23.594;2022-09-09T07:17:44;10.23;;;2.80;;
23171;SDS011;11754;42.664;23.594;2022-09-09T07:20:10;11.02;;;2.75;;
23171;SDS011;11754;42.664;23.594;2022-09-09T07:22:36;10.05;;;3.15;;
23171;SDS011;11754;42.664;23.594;2022-09-09T07:25:02;12.02;;;3.42;;
23171;SDS011;11754;42.664;23.594;2022-09-09T07:27:28;5.18;;;3.00;;
23171;SDS011;11754;42.664;23.594;2022-09-09T07:29:53;11.93;;;3.38;;
23171;SDS011;11754;42.664;23.594;2022-09-09T07:32:19;5.47;;;3.10;;
23171;SDS011;11754;42.664;23.594;2022-09-09T07:34:45;6.22;;;2.83;;
23171;SDS011;11754;42.664;23.594;2022-09-09T07:37:12;4.50;;;2.60;;
23171;SDS011;11754;42.664;23.594;2022-09-09T07:39:38;6.05;;;2.58;;
23171;SDS011;11754;42.664;23.594;2022-09-09T07:42:04;5.43;;;2.85;;
23171;SDS011;11754;42.664;23.594;2022-09-09T07:44:30;6.45;;;2.63;;
23171;SDS011;11754;42.664;23.594;2022-09-09T07:46:57;6.50;;;2.65;;
23171;SDS011;11754;42.664;23.594;2022-09-09T07:49:23;4.47;;;2.40;;
23171;SDS011;11754;42.664;23.594;2022-09-09T07:51:49;5.82;;;2.70;;
23171;SDS011;11754;42.664;23.594;2022-09-09T07:54:15;7.15;;;2.83;;
23171;SDS011;11754;42.664;23.594;2022-09-09T07:56:45;8.35;;;3.10;;
23171;SDS011;11754;42.664;23.594;2022-09-09T07:59:11;5.40;;;2.83;;
23171;SDS011;11754;42.664;23.594;2022-09-09T08:01:42;8.27;;;2.80;;
23171;SDS011;11754;42.664;23.594;2022-09-09T08:04:11;6.40;;;2.88;;
23171;SDS011;11754;42.664;23.594;2022-09-09T08:06:46;5.57;;;2.60;;
23171;SDS011;11754;42.664;23.594;2022-09-09T08:09:14;5.85;;;2.38;;
23171;SDS011;11754;42.664;23.594;2022-09-09T08:11:40;6.63;;;2.83;;
23171;SDS011;11754;42.664;23.594;2022-09-09T08:14:07;6.32;;;2.60;;
23171;SDS011;11754;42.664;23.594;2022-09-09T08:16:33;6.53;;;2.70;;
23171;SDS011;11754;42.664;23.594;2022-09-09T08:19:02;6.93;;;2.58;;
23171;SDS011;11754;42.664;23.594;2022-09-09T08:21:29;6.85;;;2.97;;
23171;SDS011;11754;42.664;23.594;2022-09-09T08:23:57;7.28;;;2.53;;
23171;SDS011;11754;42.664;23.594;2022-09-09T08:26:27;4.65;;;2.60;;
23171;SDS011;11754;42.664;23.594;2022-09-09T08:28:57;6.07;;;2.50;;
23171;SDS011;11754;42.664;23.594;2022-09-09T08:31:25;5.68;;;2.40;;
23171;SDS011;11754;42.664;23.594;2022-09-09T08:33:53;8.48;;;2.70;;
23171;SDS011;11754;42.664;23.594;2022-09-09T08:36:24;3.05;;;2.13;;
23171;SDS011;11754;42.664;23.594;2022-09-09T08:38:52;5.95;;;2.92;;
23171;SDS011;11754;42.664;23.594;2022-09-09T08:44:11;6.20;;;2.42;;
23171;SDS011;11754;42.664;23.594;2022-09-09T08:46:57;5.65;;;2.30;;
23171;SDS011;11754;42.664;23.594;2022-09-09T08:53:00;6.60;;;2.20;;
23171;SDS011;11754;42.664;23.594;2022-09-09T08:57:46;6.57;;;2.25;;
23171;SDS011;11754;42.664;23.594;2022-09-09T09:00:14;3.83;;;2.05;;
23171;SDS011;11754;42.664;23.594;2022-09-09T09:05:54;7.03;;;2.42;;
23171;SDS011;11754;42.664;23.594;2022-09-09T09:08:28;7.45;;;2.20;;
23171;SDS011;11754;42.664;23.594;2022-09-09T09:11:16;6.25;;;2.20;;
23171;SDS011;11754;42.664;23.594;2022-09-09T09:19:05;5.07;;;2.03;;
23171;SDS011;11754;42.664;23.594;2022-09-09T09:21:40;4.40;;;2.10;;
23171;SDS011;11754;42.664;23.594;2022-09-09T09:24:16;5.88;;;2.45;;
23171;SDS011;11754;42.664;23.594;2022-09-09T09:26:45;3.83;;;2.38;;
23171;SDS011;11754;42.664;23.594;2022-09-09T09:29:12;8.27;;;2.83;;
23171;SDS011;11754;42.664;23.594;2022-09-09T09:31:52;5.88;;;2.88;;
23171;SDS011;11754;42.664;23.594;2022-09-09T09:34:20;7.00;;;2.70;;
23171;SDS011;11754;42.664;23.594;2022-09-09T09:36:58;9.55;;;3.53;;
23171;SDS011;11754;42.664;23.594;2022-09-09T09:39:30;5.70;;;2.50;;
23171;SDS011;11754;42.664;23.594;2022-09-09T09:44:40;8.38;;;2.50;;
23171;SDS011;11754;42.664;23.594;2022-09-09T09:49:33;7.95;;;2.40;;
23171;SDS011;11754;42.664;23.594;2022-09-09T09:52:00;5.72;;;2.30;;
23171;SDS011;11754;42.664;23.594;2022-09-09T09:54:30;7.03;;;2.30;;
23171;SDS011;11754;42.664;23.594;2022-09-09T09:57:09;6.82;;;2.20;;
23171;SDS011;11754;42.664;23.594;2022-09-09T09:59:37;8.38;;;2.45;;
23171;SDS011;11754;42.664;23.594;2022-09-09T10:02:31;6.50;;;2.70;;
23171;SDS011;11754;42.664;23.594;2022-09-09T10:05:05;8.88;;;2.40;;
23171;SDS011;11754;42.664;23.594;2022-09-09T10:07:38;7.80;;;2.65;;
23171;SDS011;11754;42.664;23.594;2022-09-09T10:10:04;5.43;;;2.10;;
23171;SDS011;11754;42.664;23.594;2022-09-09T10:18:35;6.60;;;2.40;;
23171;SDS011;11754;42.664;23.594;2022-09-09T10:23:50;5.32;;;2.30;;
23171;SDS011;11754;42.664;23.594;2022-09-09T10:34:45;4.22;;;2.00;;
23171;SDS011;11754;42.664;23.594;2022-09-09T10:39:48;9.20;;;2.30;;
23171;SDS011;11754;42.664;23.594;2022-09-09T10:42:25;7.63;;;2.35;;
23171;SDS011;11754;42.664;23.594;2022-09-09T10:52:50;7.70;;;2.43;;
23171;SDS011;11754;42.664;23.594;2022-09-09T10:55:18;8.73;;;2.30;;
23171;SDS011;11754;42.664;23.594;2022-09-09T10:57:47;5.47;;;2.60;;
23171;SDS011;11754;42.664;23.594;2022-09-09T11:02:39;6.28;;;2.63;;
23171;SDS011;11754;42.664;23.594;2022-09-09T11:05:10;9.20;;;2.80;;
23171;SDS011;11754;42.664;23.594;2022-09-09T11:07:48;6.22;;;2.75;;
23171;SDS011;11754;42.664;23.594;2022-09-09T11:13:57;4.90;;;2.70;;
23171;SDS011;11754;42.664;23.594;2022-09-09T11:16:57;12.30;;;3.05;;
23171;SDS011;11754;42.664;23.594;2022-09-09T11:21:42;7.60;;;3.60;;
23171;SDS011;11754;42.664;23.594;2022-09-09T11:24:13;7.20;;;3.70;;
23171;SDS011;11754;42.664;23.594;2022-09-09T11:26:58;6.90;;;3.00;;
23171;SDS011;11754;42.664;23.594;2022-09-09T11:35:38;10.15;;;2.97;;
23171;SDS011;11754;42.664;23.594;2022-09-09T11:41:01;9.02;;;3.13;;
23171;SDS011;11754;42.664;23.594;2022-09-09T11:43:32;8.18;;;3.50;;
23171;SDS011;11754;42.664;23.594;2022-09-09T11:46:04;6.18;;;2.95;;
23171;SDS011;11754;42.664;23.594;2022-09-09T11:51:02;7.05;;;2.83;;
23171;SDS011;11754;42.664;23.594;2022-09-09T11:53:30;9.63;;;3.05;;
23171;SDS011;11754;42.664;23.594;2022-09-09T11:56:04;7.32;;;3.10;;
23171;SDS011;11754;42.664;23.594;2022-09-09T11:58:40;5.88;;;2.65;;
23171;SDS011;11754;42.664;23.594;2022-09-09T12:01:14;10.15;;;3.17;;
23171;SDS011;11754;42.664;23.594;2022-09-09T12:03:51;7.20;;;3.10;;
23171;SDS011;11754;42.664;23.594;2022-09-09T12:06:30;6.97;;;2.95;;
23171;SDS011;11754;42.664;23.594;2022-09-09T12:08:58;9.68;;;2.90;;
23171;SDS011;11754;42.664;23.594;2022-09-09T12:11:38;6.85;;;2.88;;
23171;SDS011;11754;42.664;23.594;2022-09-09T12:14:04;10.38;;;3.50;;
23171;SDS011;11754;42.664;23.594;2022-09-09T12:16:33;6.88;;;3.20;;
23171;SDS011;11754;42.664;23.594;2022-09-09T12:19:04;6.40;;;3.30;;
23171;SDS011;11754;42.664;23.594;2022-09-09T12:24:28;5.05;;;2.90;;
23171;SDS011;11754;42.664;23.594;2022-09-09T12:27:20;5.78;;;3.28;;
23171;SDS011;11754;42.664;23.594;2022-09-09T12:30:12;5.15;;;3.05;;
23171;SDS011;11754;42.664;23.594;2022-09-09T12:32:40;8.85;;;3.08;;
23171;SDS011;11754;42.664;23.594;2022-09-09T12:37:52;7.68;;;2.97;;
23171;SDS011;11754;42.664;23.594;2022-09-09T12:40:29;9.40;;;3.28;;
23171;SDS011;11754;42.664;23.594;2022-09-09T12:42:57;8.20;;;3.35;;
23171;SDS011;11754;42.664;23.594;2022-09-09T12:45:27;8.30;;;3.50;;
23171;SDS011;11754;42.664;23.594;2022-09-09T12:47:56;8.85;;;3.55;;
23171;SDS011;11754;42.664;23.594;2022-09-09T12:50:30;3.90;;;2.95;;
23171;SDS011;11754;42.664;23.594;2022-09-09T12:52:58;7.40;;;3.30;;
23171;SDS011;11754;42.664;23.594;2022-09-09T12:55:35;10.27;;;3.40;;
23171;SDS011;11754;42.664;23.594;2022-09-09T12:58:04;7.03;;;3.38;;
23171;SDS011;11754;42.664;23.594;2022-09-09T13:00:31;10.18;;;3.38;;
23171;SDS011;11754;42.664;23.594;2022-09-09T13:02:58;9.13;;;3.42;;
23171;SDS011;11754;42.664;23.594;2022-09-09T13:05:27;9.77;;;3.33;;
23171;SDS011;11754;42.664;23.594;2022-09-09T13:08:06;6.72;;;3.42;;
23171;SDS011;11754;42.664;23.594;2022-09-09T13:10:39;10.60;;;3.80;;
23171;SDS011;11754;42.664;23.594;2022-09-09T13:13:37;11.85;;;3.78;;
23171;SDS011;11754;42.664;23.594;2022-09-09T13:16:04;5.50;;;3.10;;
23171;SDS011;11754;42.664;23.594;2022-09-09T13:18:37;6.32;;;2.80;;
23171;SDS011;11754;42.664;23.594;2022-09-09T13:21:05;12.52;;;3.08;;
23171;SDS011;11754;42.664;23.594;2022-09-09T13:23:34;9.85;;;3.58;;
23171;SDS011;11754;42.664;23.594;2022-09-09T13:26:05;13.75;;;3.00;;
23171;SDS011;11754;42.664;23.594;2022-09-09T13:28:52;13.35;;;3.50;;
23171;SDS011;11754;42.664;23.594;2022-09-09T13:31:19;12.82;;;3.22;;
23171;SDS011;11754;42.664;23.594;2022-09-09T13:33:47;7.75;;;3.42;;
23171;SDS011;11754;42.664;23.594;2022-09-09T13:36:13;10.00;;;3.25;;
23171;SDS011;11754;42.664;23.594;2022-09-09T13:41:23;8.85;;;3.33;;
23171;SDS011;11754;42.664;23.594;2022-09-09T13:43:52;9.02;;;3.53;;
23171;SDS011;11754;42.664;23.594;2022-09-09T13:46:39;10.40;;;3.45;;
23171;SDS011;11754;42.664;23.594;2022-09-09T13:51:41;9.88;;;3.33;;
23171;SDS011;11754;42.664;23.594;2022-09-09T13:54:09;5.50;;;3.35;;
23171;SDS011;11754;42.664;23.594;2022-09-09T13:56:36;14.88;;;3.70;;
23171;SDS011;11754;42.664;23.594;2022-09-09T13:59:04;8.38;;;3.10;;
23171;SDS011;11754;42.664;23.594;2022-09-09T14:01:30;10.65;;;3.45;;
23171;SDS011;11754;42.664;23.594;2022-09-09T14:03:56;10.88;;;3.75;;
23171;SDS011;11754;42.664;23.594;2022-09-09T14:06:22;13.68;;;3.65;;
23171;SDS011;11754;42.664;23.594;2022-09-09T14:08:51;8.88;;;3.60;;
23171;SDS011;11754;42.664;23.594;2022-09-09T14:11:17;9.98;;;3.83;;
23171;SDS011;11754;42.664;23.594;2022-09-09T14:13:43;11.43;;;3.60;;
23171;SDS011;11754;42.664;23.594;2022-09-09T14:16:09;10.75;;;4.10;;
23171;SDS011;11754;42.664;23.594;2022-09-09T14:18:34;9.27;;;3.25;;
23171;SDS011;11754;42.664;23.594;2022-09-09T14:21:00;12.40;;;3.70;;
23171;SDS011;11754;42.664;23.594;2022-09-09T14:23:27;8.88;;;3.17;;
23171;SDS011;11754;42.664;23.594;2022-09-09T14:25:54;10.63;;;3.65;;
23171;SDS011;11754;42.664;23.594;2022-09-09T14:28:20;7.60;;;3.58;;
23171;SDS011;11754;42.664;23.594;2022-09-09T14:30:45;9.35;;;3.60;;
23171;SDS011;11754;42.664;23.594;2022-09-09T14:33:11;17.73;;;3.75;;
23171;SDS011;11754;42.664;23.594;2022-09-09T14:35:39;5.45;;;3.17;;
23171;SDS011;11754;42.664;23.594;2022-09-09T14:38:05;8.70;;;3.35;;
23171;SDS011;11754;42.664;23.594;2022-09-09T14:40:31;9.63;;;3.35;;
23171;SDS011;11754;42.664;23.594;2022-09-09T14:42:59;11.27;;;3.15;;
23171;SDS011;11754;42.664;23.594;2022-09-09T14:45:24;8.30;;;2.90;;
23171;SDS011;11754;42.664;23.594;2022-09-09T14:47:50;9.65;;;3.25;;
23171;SDS011;11754;42.664;23.594;2022-09-09T14:50:16;8.75;;;3.40;;
23171;SDS011;11754;42.664;23.594;2022-09-09T14:52:42;10.10;;;3.22;;
23171;SDS011;11754;42.664;23.594;2022-09-09T14:55:08;10.35;;;3.30;;
23171;SDS011;11754;42.664;23.594;2022-09-09T14:57:33;13.68;;;3.30;;
23171;SDS011;11754;42.664;23.594;2022-09-09T15:00:00;14.38;;;3.40;;
23171;SDS011;11754;42.664;23.594;2022-09-09T15:02:26;8.10;;;2.90;;
23171;SDS011;11754;42.664;23.594;2022-09-09T15:04:51;10.70;;;2.90;;
23171;SDS011;11754;42.664;23.594;2022-09-09T15:07:17;11.75;;;3.30;;
23171;SDS011;11754;42.664;23.594;2022-09-09T15:09:44;7.75;;;2.67;;
23171;SDS011;11754;42.664;23.594;2022-09-09T15:12:12;9.55;;;2.50;;
23171;SDS011;11754;42.664;23.594;2022-09-09T15:14:38;6.88;;;2.45;;
23171;SDS011;11754;42.664;23.594;2022-09-09T15:17:03;9.27;;;2.60;;
23171;SDS011;11754;42.664;23.594;2022-09-09T15:19:28;8.43;;;2.22;;
23171;SDS011;11754;42.664;23.594;2022-09-09T15:21:54;6.03;;;2.50;;
23171;SDS011;11754;42.664;23.594;2022-09-09T15:24:19;5.82;;;2.70;;
23171;SDS011;11754;42.664;23.594;2022-09-09T15:26:46;11.93;;;2.80;;
23171;SDS011;11754;42.664;23.594;2022-09-09T15:29:11;5.57;;;2.80;;
23171;SDS011;11754;42.664;23.594;2022-09-09T15:31:37;7.57;;;2.67;;
23171;SDS011;11754;42.664;23.594;2022-09-09T15:34:05;12.82;;;3.08;;
23171;SDS011;11754;42.664;23.594;2022-09-09T15:37:05;8.93;;;3.20;;
23171;SDS011;11754;42.664;23.594;2022-09-09T15:41:50;6.72;;;3.47;;
23171;SDS011;11754;42.664;23.594;2022-09-09T15:44:16;9.32;;;3.35;;
23171;SDS011;11754;42.664;23.594;2022-09-09T15:49:19;9.45;;;3.50;;
23171;SDS011;11754;42.664;23.594;2022-09-09T15:51:51;8.70;;;3.28;;
23171;SDS011;11754;42.664;23.594;2022-09-09T15:54:19;8.75;;;3.88;;
23171;SDS011;11754;42.664;23.594;2022-09-09T15:56:49;10.93;;;3.42;;
23171;SDS011;11754;42.664;23.594;2022-09-09T15:59:16;10.75;;;3.28;;
23171;SDS011;11754;42.664;23.594;2022-09-09T16:01:42;5.72;;;3.15;;
23171;SDS011;11754;42.664;23.594;2022-09-09T16:04:08;7.70;;;3.65;;
23171;SDS011;11754;42.664;23.594;2022-09-09T16:06:34;11.77;;;3.55;;
23171;SDS011;11754;42.664;23.594;2022-09-09T16:09:00;5.30;;;3.15;;
23171;SDS011;11754;42.664;23.594;2022-09-09T16:11:30;7.28;;;3.67;;
23171;SDS011;11754;42.664;23.594;2022-09-09T16:13:57;8.02;;;3.42;;
23171;SDS011;11754;42.664;23.594;2022-09-09T16:16:24;9.98;;;3.92;;
23171;SDS011;11754;42.664;23.594;2022-09-09T16:18:52;6.50;;;3.25;;
23171;SDS011;11754;42.664;23.594;2022-09-09T16:21:23;8.43;;;3.35;;
23171;SDS011;11754;42.664;23.594;2022-09-09T16:23:55;7.18;;;3.72;;
23171;SDS011;11754;42.664;23.594;2022-09-09T16:26:21;10.20;;;3.85;;
23171;SDS011;11754;42.664;23.594;2022-09-09T16:28:48;11.43;;;3.95;;
23171;SDS011;11754;42.664;23.594;2022-09-09T16:31:18;9.57;;;3.72;;
23171;SDS011;11754;42.664;23.594;2022-09-09T16:33:45;11.57;;;3.90;;
23171;SDS011;11754;42.664;23.594;2022-09-09T16:36:12;5.53;;;3.42;;
23171;SDS011;11754;42.664;23.594;2022-09-09T16:38:40;9.13;;;3.40;;
23171;SDS011;11754;42.664;23.594;2022-09-09T16:41:06;8.75;;;3.63;;
23171;SDS011;11754;42.664;23.594;2022-09-09T16:43:33;10.52;;;3.72;;
23171;SDS011;11754;42.664;23.594;2022-09-09T16:46:09;9.23;;;3.80;;
23171;SDS011;11754;42.664;23.594;2022-09-09T16:48:38;10.35;;;3.70;;
23171;SDS011;11754;42.664;23.594;2022-09-09T16:51:06;7.93;;;4.00;;
23171;SDS011;11754;42.664;23.594;2022-09-09T16:53:35;11.05;;;3.92;;
23171;SDS011;11754;42.664;23.594;2022-09-09T16:56:04;8.80;;;3.83;;
23171;SDS011;11754;42.664;23.594;2022-09-09T16:58:31;6.97;;;3.83;;
23171;SDS011;11754;42.664;23.594;2022-09-09T17:00:58;10.77;;;4.13;;
23171;SDS011;11754;42.664;23.594;2022-09-09T17:03:24;9.07;;;4.18;;
23171;SDS011;11754;42.664;23.594;2022-09-09T17:05:49;5.65;;;3.60;;
23171;SDS011;11754;42.664;23.594;2022-09-09T17:08:15;6.43;;;3.80;;
23171;SDS011;11754;42.664;23.594;2022-09-09T17:10:41;10.40;;;4.07;;